createdAt,value
2023-05-06T00:02:17.683Z,9.43
2023-05-06T00:04:44.666Z,13.07
2023-05-06T00:07:12.023Z,9.27
2023-05-06T00:09:38.915Z,18.17
2023-05-06T00:12:05.787Z,12.83
2023-05-06T00:14:32.693Z,9.07
2023-05-06T00:16:59.532Z,10.00
2023-05-06T00:19:26.536Z,13.67
2023-05-06T00:21:53.376Z,12.60
2023-05-06T00:24:20.183Z,9.23
2023-05-06T00:26:47.010Z,15.37
2023-05-06T00:29:13.767Z,11.93
2023-05-06T00:31:41.192Z,14.93
2023-05-06T00:34:08.379Z,11.17
2023-05-06T00:36:35.176Z,14.40
2023-05-06T00:39:02.527Z,15.27
2023-05-06T00:41:33.085Z,13.27
2023-05-06T00:43:59.949Z,15.00
2023-05-06T00:46:27.448Z,14.17
2023-05-06T00:48:54.925Z,11.83
2023-05-06T00:51:22.453Z,13.50
2023-05-06T00:53:49.404Z,13.17
2023-05-06T00:56:20.488Z,13.23
2023-05-06T00:58:48.144Z,12.87
2023-05-06T01:01:15.056Z,11.77
2023-05-06T01:03:42.240Z,16.63
2023-05-06T01:06:14.358Z,17.07
2023-05-06T01:08:53.240Z,21.47
2023-05-06T01:11:24.819Z,13.47
2023-05-06T01:14:27.462Z,12.60
2023-05-06T01:16:55.473Z,12.23
2023-05-06T01:19:31.176Z,13.40
2023-05-06T01:22:00.070Z,12.87
2023-05-06T01:24:45.567Z,10.70
2023-05-06T01:27:13.424Z,13.27
2023-05-06T01:29:42.523Z,11.50
2023-05-06T01:32:35.638Z,10.33
2023-05-06T01:35:12.154Z,13.53
2023-05-06T01:37:43.611Z,11.47
2023-05-06T01:40:11.013Z,13.30
2023-05-06T01:42:40.301Z,8.93
2023-05-06T01:45:08.379Z,12.93
2023-05-06T01:47:36.886Z,11.50
2023-05-06T01:50:04.860Z,11.90
2023-05-06T01:52:33.114Z,9.93
2023-05-06T01:55:00.038Z,9.77
2023-05-06T01:57:27.670Z,14.77
2023-05-06T01:59:54.602Z,12.67
2023-05-06T02:02:21.489Z,9.70
2023-05-06T02:04:48.553Z,12.80
2023-05-06T02:07:16.003Z,12.00
2023-05-06T02:09:44.197Z,10.70
2023-05-06T02:12:11.616Z,12.27
2023-05-06T02:14:38.430Z,12.23
2023-05-06T02:17:06.194Z,10.37
2023-05-06T02:19:33.214Z,11.23
2023-05-06T02:22:00.164Z,10.20
2023-05-06T02:24:27.098Z,10.73
2023-05-06T02:26:53.961Z,11.33
2023-05-06T02:29:21.003Z,12.27
2023-05-06T02:31:47.892Z,9.53
2023-05-06T02:34:16.551Z,15.10
2023-05-06T02:36:43.573Z,9.07
2023-05-06T02:39:10.806Z,8.73
2023-05-06T02:41:37.649Z,9.40
2023-05-06T02:44:04.642Z,9.33
2023-05-06T02:46:31.464Z,12.63
2023-05-06T02:48:58.448Z,8.37
2023-05-06T02:51:25.213Z,10.37
2023-05-06T02:53:52.199Z,15.10
2023-05-06T02:56:19.085Z,9.70
2023-05-06T02:58:46.006Z,10.70
2023-05-06T03:01:12.958Z,9.63
2023-05-06T03:03:39.987Z,10.57
2023-05-06T03:06:06.792Z,12.33
2023-05-06T03:08:33.751Z,10.97
2023-05-06T03:11:01.336Z,13.27
2023-05-06T03:13:28.127Z,13.60
2023-05-06T03:15:55.280Z,9.27
2023-05-06T03:18:22.469Z,10.83
2023-05-06T03:20:50.574Z,13.67
2023-05-06T03:23:18.318Z,10.67
2023-05-06T03:25:46.005Z,9.43
2023-05-06T03:28:13.616Z,8.13
2023-05-06T03:30:42.254Z,13.87
2023-05-06T03:33:09.504Z,15.20
2023-05-06T03:35:36.423Z,11.90
2023-05-06T03:38:03.696Z,10.23
2023-05-06T03:40:43.975Z,12.27
2023-05-06T03:43:12.071Z,11.47
2023-05-06T03:45:39.026Z,10.60
2023-05-06T03:48:06.597Z,10.37
2023-05-06T03:50:36.571Z,13.87
2023-05-06T03:53:03.531Z,10.90
2023-05-06T03:55:32.665Z,10.53
2023-05-06T03:58:01.108Z,9.93
2023-05-06T04:00:28.054Z,10.77
2023-05-06T04:02:55.200Z,12.47
2023-05-06T04:05:28.941Z,9.57
2023-05-06T04:07:55.815Z,11.83
2023-05-06T04:10:23.196Z,13.77
2023-05-06T04:12:52.837Z,11.80
2023-05-06T04:15:25.530Z,14.80
2023-05-06T04:17:52.824Z,12.43
2023-05-06T04:20:20.757Z,12.57
2023-05-06T04:22:48.141Z,12.60
2023-05-06T04:25:16.427Z,11.77
2023-05-06T04:27:43.377Z,16.47
2023-05-06T04:30:10.652Z,15.70
2023-05-06T04:32:38.911Z,11.87
2023-05-06T04:35:07.794Z,10.57
2023-05-06T04:37:35.870Z,8.63
2023-05-06T04:40:09.533Z,10.07
2023-05-06T04:42:39.687Z,8.10
2023-05-06T04:45:12.439Z,8.93
2023-05-06T04:47:42.605Z,10.27
2023-05-06T04:50:10.282Z,7.60
2023-05-06T04:52:37.753Z,9.70
2023-05-06T04:55:05.753Z,11.70
2023-05-06T04:57:35.303Z,9.97
2023-05-06T05:00:03.827Z,8.97
2023-05-06T05:02:30.685Z,8.87
2023-05-06T05:04:57.837Z,9.33
2023-05-06T05:07:25.534Z,9.67
2023-05-06T05:09:52.472Z,8.17
2023-05-06T05:12:19.418Z,7.90
2023-05-06T05:14:49.262Z,11.57
2023-05-06T05:17:16.443Z,7.77
2023-05-06T05:19:44.553Z,12.10
2023-05-06T05:22:12.981Z,8.33
2023-05-06T05:24:39.895Z,9.40
2023-05-06T05:27:07.661Z,13.50
2023-05-06T05:29:35.372Z,14.13
2023-05-06T05:32:05.530Z,8.63
2023-05-06T05:34:32.862Z,14.87
2023-05-06T05:37:00.812Z,9.93
2023-05-06T05:39:28.825Z,12.17
2023-05-06T05:41:56.398Z,16.23
2023-05-06T05:44:23.619Z,9.37
2023-05-06T05:46:51.049Z,9.33
2023-05-06T05:49:19.999Z,11.63
2023-05-06T05:51:48.318Z,9.23
2023-05-06T05:54:17.609Z,15.10
2023-05-06T05:56:45.896Z,16.30
2023-05-06T05:59:13.759Z,15.07
2023-05-06T06:01:41.654Z,9.07
2023-05-06T06:04:09.720Z,11.50
2023-05-06T06:06:36.707Z,11.03
2023-05-06T06:09:04.505Z,6.47
2023-05-06T06:11:31.366Z,13.23
2023-05-06T06:13:58.828Z,13.20
2023-05-06T06:16:26.877Z,9.07
2023-05-06T06:18:54.265Z,13.53
2023-05-06T06:21:21.359Z,9.70
2023-05-06T06:23:48.298Z,10.93
2023-05-06T06:26:15.501Z,10.43
2023-05-06T06:28:44.939Z,10.30
2023-05-06T06:31:12.029Z,9.43
2023-05-06T06:33:38.869Z,6.93
2023-05-06T06:36:06.306Z,12.20
2023-05-06T06:38:33.100Z,7.83
2023-05-06T06:41:00.005Z,8.87
2023-05-06T06:43:26.996Z,15.67
2023-05-06T06:46:02.179Z,11.23
2023-05-06T06:48:29.162Z,9.50
2023-05-06T06:50:56.008Z,9.47
2023-05-06T06:53:23.400Z,7.07
2023-05-06T06:55:50.207Z,11.77
2023-05-06T06:58:17.068Z,10.40
2023-05-06T07:00:44.328Z,6.60
2023-05-06T07:03:11.414Z,7.60
2023-05-06T07:05:38.281Z,8.53
2023-05-06T07:08:05.162Z,8.50
2023-05-06T07:10:32.390Z,11.03
2023-05-06T07:12:59.261Z,13.50
2023-05-06T07:15:26.322Z,8.63
2023-05-06T07:17:53.255Z,11.03
2023-05-06T07:20:20.065Z,15.60
2023-05-06T07:22:47.057Z,10.50
2023-05-06T07:25:13.903Z,16.47
2023-05-06T07:27:40.842Z,8.77
2023-05-06T07:30:08.463Z,11.00
2023-05-06T07:32:35.414Z,17.63
2023-05-06T07:35:02.251Z,15.93
2023-05-06T07:37:29.161Z,17.67
2023-05-06T07:39:56.836Z,12.27
2023-05-06T07:42:23.955Z,9.17
2023-05-06T07:44:50.819Z,12.30
2023-05-06T07:47:26.024Z,13.17
2023-05-06T07:49:53.041Z,16.43
2023-05-06T07:52:19.804Z,11.57
2023-05-06T07:54:47.091Z,8.80
2023-05-06T07:57:14.092Z,13.07
2023-05-06T07:59:40.917Z,15.03
2023-05-06T08:02:07.793Z,7.33
2023-05-06T08:04:34.702Z,11.57
2023-05-06T08:07:01.687Z,25.63
2023-05-06T08:09:28.597Z,12.03
2023-05-06T08:11:55.473Z,9.57
2023-05-06T08:14:22.408Z,16.67
2023-05-06T08:16:49.337Z,11.53
2023-05-06T08:19:16.280Z,7.33
2023-05-06T08:21:43.069Z,8.23
2023-05-06T08:24:11.464Z,10.27
2023-05-06T08:26:38.258Z,6.93
2023-05-06T08:29:05.059Z,8.60
2023-05-06T08:31:31.953Z,8.97
2023-05-06T08:33:58.804Z,13.07
2023-05-06T08:36:25.748Z,10.37
2023-05-06T08:38:52.558Z,11.00
2023-05-06T08:41:21.578Z,10.37
2023-05-06T08:43:49.166Z,10.13
2023-05-06T08:46:16.635Z,9.30
2023-05-06T08:48:43.525Z,11.23
2023-05-06T08:51:11.830Z,8.27
2023-05-06T08:53:40.272Z,8.63
2023-05-06T08:56:08.909Z,10.53
2023-05-06T08:58:37.744Z,10.57
2023-05-06T09:01:04.813Z,12.87
2023-05-06T09:03:32.062Z,11.10
2023-05-06T09:05:59.093Z,11.40
2023-05-06T09:08:25.992Z,10.93
2023-05-06T09:10:52.910Z,19.23
2023-05-06T09:13:20.001Z,10.33
2023-05-06T09:15:48.046Z,15.23
2023-05-06T09:18:15.524Z,14.10
2023-05-06T09:20:43.315Z,12.70
2023-05-06T09:23:11.480Z,11.90
2023-05-06T09:25:38.859Z,22.83
2023-05-06T09:28:06.893Z,13.23
2023-05-06T09:30:33.837Z,13.00
2023-05-06T09:33:04.958Z,15.07
2023-05-06T09:35:42.271Z,12.53
2023-05-06T09:38:09.678Z,12.70
2023-05-06T09:40:36.658Z,17.87
2023-05-06T09:43:04.133Z,15.20
2023-05-06T09:45:31.041Z,18.13
2023-05-06T09:47:58.837Z,21.80
2023-05-06T09:50:26.659Z,27.73
2023-05-06T09:52:54.915Z,21.53
2023-05-06T09:55:22.990Z,21.73
2023-05-06T09:57:50.094Z,15.13
2023-05-06T10:00:17.379Z,15.67
2023-05-06T10:02:46.338Z,14.83
2023-05-06T10:05:14.050Z,11.40
2023-05-06T10:07:44.266Z,12.93
2023-05-06T10:10:14.575Z,13.87
2023-05-06T10:12:42.266Z,19.97
2023-05-06T10:15:09.575Z,22.07
2023-05-06T10:17:39.619Z,19.33
2023-05-06T10:20:09.389Z,14.17
2023-05-06T10:22:55.016Z,15.33
2023-05-06T10:25:21.901Z,16.33
2023-05-06T10:27:50.083Z,16.33
2023-05-06T10:30:17.693Z,15.33
2023-05-06T10:32:45.592Z,16.63
2023-05-06T10:35:17.056Z,15.33
2023-05-06T10:37:45.647Z,14.23
2023-05-06T10:40:12.656Z,14.60
2023-05-06T10:42:39.515Z,12.70
2023-05-06T10:45:06.851Z,14.20
2023-05-06T10:48:00.696Z,17.03
2023-05-06T10:50:28.128Z,17.07
2023-05-06T10:52:55.854Z,13.47
2023-05-06T10:55:27.513Z,18.93
2023-05-06T10:57:56.515Z,18.23
2023-05-06T11:00:23.805Z,34.90
2023-05-06T11:02:54.971Z,37.60
2023-05-06T11:05:22.689Z,21.77
2023-05-06T11:07:53.902Z,17.13
2023-05-06T11:10:38.948Z,16.80
2023-05-06T11:13:18.440Z,12.40
2023-05-06T11:15:46.536Z,15.47
2023-05-06T11:18:25.356Z,17.20
2023-05-06T11:21:02.980Z,15.70
2023-05-06T11:23:54.371Z,19.50
2023-05-06T11:26:21.490Z,17.90
2023-05-06T11:28:49.662Z,37.30
2023-05-06T11:31:16.947Z,28.30
2023-05-06T11:33:47.862Z,44.23
2023-05-06T11:36:15.872Z,37.93
2023-05-06T11:38:43.119Z,27.77
2023-05-06T11:41:10.184Z,22.60
2023-05-06T11:43:37.074Z,19.07
2023-05-06T11:46:04.094Z,22.07
2023-05-06T11:48:30.907Z,27.20
2023-05-06T11:50:58.200Z,32.43
2023-05-06T11:53:25.136Z,27.03
2023-05-06T11:55:53.154Z,23.37
2023-05-06T11:58:21.573Z,24.20
2023-05-06T12:00:51.969Z,16.70
2023-05-06T12:03:22.602Z,19.50
2023-05-06T12:05:50.254Z,22.80
2023-05-06T12:08:26.619Z,17.83
2023-05-06T12:11:05.079Z,44.10
2023-05-06T12:13:32.105Z,36.23
2023-05-06T12:15:59.725Z,19.90
2023-05-06T12:18:27.141Z,96.23
2023-05-06T12:20:54.803Z,75.03
2023-05-06T12:23:22.297Z,41.20
2023-05-06T12:26:08.570Z,16.27
2023-05-06T12:28:36.121Z,21.33
2023-05-06T12:31:21.870Z,17.20
2023-05-06T12:33:50.085Z,17.97
2023-05-06T12:36:17.598Z,15.90
2023-05-06T12:38:57.902Z,14.87
2023-05-06T12:41:25.637Z,15.87
2023-05-06T12:43:55.283Z,16.27
2023-05-06T12:46:22.244Z,19.30
2023-05-06T12:49:02.293Z,23.23
2023-05-06T12:51:31.109Z,21.40
2023-05-06T12:53:58.357Z,17.37
2023-05-06T12:56:25.311Z,21.13
2023-05-06T12:58:59.640Z,20.77
2023-05-06T13:01:26.617Z,22.27
2023-05-06T13:03:54.897Z,17.40
2023-05-06T13:06:21.868Z,40.30
2023-05-06T13:08:48.748Z,66.80
2023-05-06T13:11:15.581Z,32.07
2023-05-06T13:13:42.821Z,28.33
2023-05-06T13:16:10.007Z,27.43
2023-05-06T13:18:36.862Z,19.83
2023-05-06T13:21:04.196Z,15.70
2023-05-06T13:23:31.914Z,15.87
2023-05-06T13:26:04.761Z,19.67
2023-05-06T13:28:33.490Z,28.73
2023-05-06T13:31:00.401Z,20.70
2023-05-06T13:33:27.331Z,16.57
2023-05-06T13:35:54.214Z,17.63
2023-05-06T13:38:21.256Z,14.47
2023-05-06T13:40:51.652Z,12.47
2023-05-06T13:43:19.394Z,18.27
2023-05-06T13:45:46.299Z,12.87
2023-05-06T13:48:13.366Z,19.67
2023-05-06T13:50:43.793Z,12.97
2023-05-06T13:53:10.936Z,13.23
2023-05-06T13:55:37.817Z,15.30
2023-05-06T13:58:06.261Z,19.53
2023-05-06T14:00:33.527Z,15.70
2023-05-06T14:03:00.913Z,20.33
2023-05-06T14:05:27.852Z,22.30
2023-05-06T14:07:54.690Z,15.73
2023-05-06T14:10:21.797Z,16.60
2023-05-06T14:12:48.645Z,16.73
2023-05-06T14:15:15.817Z,14.83
2023-05-06T14:17:43.159Z,17.83
2023-05-06T14:20:10.446Z,18.47
2023-05-06T14:22:37.977Z,14.80
2023-05-06T14:25:05.074Z,17.37
2023-05-06T14:27:31.883Z,19.40
2023-05-06T14:29:58.734Z,20.67
2023-05-06T14:32:25.616Z,23.07
2023-05-06T14:34:52.495Z,21.23
2023-05-06T14:37:19.259Z,16.87
2023-05-06T14:39:46.112Z,17.47
2023-05-06T14:42:13.494Z,19.33
2023-05-06T14:44:40.313Z,26.17
2023-05-06T14:47:07.204Z,28.77
2023-05-06T14:49:33.995Z,25.13
2023-05-06T14:52:01.885Z,22.90
2023-05-06T14:54:29.510Z,19.87
2023-05-06T14:57:01.380Z,21.73
2023-05-06T14:59:28.583Z,24.87
2023-05-06T15:01:59.036Z,24.93
2023-05-06T15:04:25.912Z,21.40
2023-05-06T15:06:52.776Z,26.07
2023-05-06T15:09:19.656Z,23.33
2023-05-06T15:11:46.496Z,30.00
2023-05-06T15:14:13.440Z,24.77
2023-05-06T15:16:40.399Z,20.17
2023-05-06T15:19:07.280Z,27.17
2023-05-06T15:21:34.044Z,20.40
2023-05-06T15:24:01.280Z,23.10
2023-05-06T15:26:28.153Z,21.03
2023-05-06T15:28:55.058Z,30.37
2023-05-06T15:31:21.846Z,29.37
2023-05-06T15:33:49.034Z,23.80
2023-05-06T15:36:15.795Z,25.40
2023-05-06T15:38:51.647Z,27.63
2023-05-06T15:41:18.876Z,26.73
2023-05-06T15:43:45.791Z,28.00
2023-05-06T15:46:12.734Z,30.63
2023-05-06T15:48:39.616Z,28.30
2023-05-06T15:51:06.481Z,26.50
2023-05-06T15:53:33.315Z,27.10
2023-05-06T15:56:13.273Z,25.13
2023-05-06T15:58:44.939Z,22.70
2023-05-06T16:01:11.948Z,24.40
2023-05-06T16:03:41.337Z,23.73
2023-05-06T16:06:08.668Z,33.10
2023-05-06T16:08:36.074Z,209.83
2023-05-06T16:11:02.978Z,200.30
2023-05-06T16:13:29.829Z,127.40
2023-05-06T16:15:56.711Z,75.03
2023-05-06T16:18:23.635Z,62.13
2023-05-06T16:20:50.551Z,50.23
2023-05-06T16:23:17.576Z,79.53
2023-05-06T16:25:44.550Z,41.00
2023-05-06T16:28:11.347Z,29.43
2023-05-06T16:30:38.278Z,26.00
2023-05-06T16:33:05.398Z,27.60
2023-05-06T16:35:32.968Z,30.03
2023-05-06T16:37:59.752Z,29.83
2023-05-06T16:40:27.892Z,29.03
2023-05-06T16:42:55.367Z,29.10
2023-05-06T16:45:22.334Z,34.53
2023-05-06T16:47:49.357Z,25.50
2023-05-06T16:50:16.297Z,23.83
2023-05-06T16:52:43.212Z,24.27
2023-05-06T16:55:10.137Z,28.97
2023-05-06T16:57:37.127Z,21.83
2023-05-06T17:00:08.165Z,24.67
2023-05-06T17:02:35.448Z,31.67
2023-05-06T17:05:02.592Z,29.40
2023-05-06T17:07:29.507Z,25.93
2023-05-06T17:09:56.329Z,25.57
2023-05-06T17:12:24.001Z,28.13
2023-05-06T17:14:50.998Z,25.60
2023-05-06T17:17:19.646Z,23.57
2023-05-06T17:19:47.785Z,26.77
2023-05-06T17:22:14.574Z,27.60
2023-05-06T17:24:41.558Z,24.07
2023-05-06T17:27:08.360Z,23.67
2023-05-06T17:29:35.204Z,28.23
2023-05-06T17:32:02.140Z,25.40
2023-05-06T17:34:28.948Z,24.27
2023-05-06T17:36:56.307Z,22.50
2023-05-06T17:39:23.181Z,23.93
2023-05-06T17:41:49.985Z,23.70
2023-05-06T17:44:18.480Z,21.83
2023-05-06T17:46:48.441Z,24.50
2023-05-06T17:49:15.869Z,26.27
2023-05-06T17:51:45.419Z,22.97
2023-05-06T17:54:12.516Z,22.40
2023-05-06T17:56:39.431Z,25.37
2023-05-06T17:59:06.283Z,26.97
2023-05-06T18:01:33.282Z,23.80
2023-05-06T18:04:00.342Z,22.67
2023-05-06T18:06:27.414Z,23.67
2023-05-06T18:08:54.179Z,22.73
2023-05-06T18:11:21.059Z,26.50
2023-05-06T18:13:47.876Z,25.60
2023-05-06T18:16:14.926Z,27.77
2023-05-06T18:18:42.639Z,29.70
2023-05-06T18:21:09.520Z,27.43
2023-05-06T18:23:36.336Z,31.37
2023-05-06T18:26:06.453Z,29.63
2023-05-06T18:28:36.388Z,23.07
2023-05-06T18:31:03.384Z,27.37
2023-05-06T18:33:30.409Z,22.80
2023-05-06T18:35:57.227Z,22.90
2023-05-06T18:38:26.918Z,24.93
2023-05-06T18:40:54.175Z,28.30
2023-05-06T18:43:21.006Z,24.77
2023-05-06T18:45:47.842Z,24.30
2023-05-06T18:48:14.811Z,24.63
2023-05-06T18:50:41.834Z,24.60
2023-05-06T18:53:08.811Z,21.50
2023-05-06T18:55:35.758Z,19.20
2023-05-06T18:58:05.749Z,18.37
2023-05-06T19:00:32.845Z,30.00
2023-05-06T19:02:59.753Z,24.53
2023-05-06T19:05:26.709Z,23.37
2023-05-06T19:07:53.585Z,21.07
2023-05-06T19:10:20.576Z,24.50
2023-05-06T19:12:47.421Z,21.03
2023-05-06T19:15:14.366Z,25.67
2023-05-06T19:17:41.544Z,31.10
2023-05-06T19:20:08.677Z,13.97
2023-05-06T19:22:35.619Z,21.67
2023-05-06T19:25:02.413Z,15.83
2023-05-06T19:27:29.207Z,19.77
2023-05-06T19:29:56.780Z,22.17
2023-05-06T19:32:23.698Z,19.73
2023-05-06T19:34:50.521Z,13.97
2023-05-06T19:37:17.406Z,13.77
2023-05-06T19:39:44.278Z,13.37
2023-05-06T19:42:11.170Z,15.40
2023-05-06T19:44:38.050Z,15.57
2023-05-06T19:47:04.935Z,14.30
2023-05-06T19:49:32.697Z,15.13
2023-05-06T19:51:59.685Z,18.17
2023-05-06T19:54:27.441Z,14.87
2023-05-06T19:56:54.269Z,17.57
2023-05-06T19:59:21.222Z,14.20
2023-05-06T20:01:48.090Z,14.93
2023-05-06T20:04:15.001Z,12.17
2023-05-06T20:06:42.101Z,13.57
2023-05-06T20:09:10.465Z,15.30
2023-05-06T20:11:37.305Z,14.23
2023-05-06T20:14:04.951Z,13.30
2023-05-06T20:16:31.797Z,14.33
2023-05-06T20:18:59.289Z,15.57
2023-05-06T20:21:26.441Z,16.27
2023-05-06T20:23:53.215Z,11.07
2023-05-06T20:26:20.153Z,16.03
2023-05-06T20:28:47.056Z,11.63
2023-05-06T20:31:13.886Z,14.00
2023-05-06T20:33:40.915Z,12.37
2023-05-06T20:36:07.874Z,15.00
2023-05-06T20:38:34.907Z,17.77
2023-05-06T20:41:03.039Z,14.47
2023-05-06T20:43:30.610Z,14.23
2023-05-06T20:45:57.426Z,13.27
2023-05-06T20:48:24.429Z,12.63
2023-05-06T20:50:54.225Z,11.40
2023-05-06T20:53:21.114Z,13.00
2023-05-06T20:55:48.047Z,15.43
2023-05-06T20:58:15.265Z,9.00
2023-05-06T21:00:42.067Z,10.77
2023-05-06T21:03:09.102Z,9.67
2023-05-06T21:05:36.384Z,10.50
2023-05-06T21:08:03.198Z,9.90
2023-05-06T21:10:30.096Z,9.13
2023-05-06T21:12:57.145Z,8.23
2023-05-06T21:15:24.081Z,8.73
2023-05-06T21:17:50.959Z,11.43
2023-05-06T21:20:19.408Z,9.17
2023-05-06T21:22:46.207Z,8.90
2023-05-06T21:25:13.466Z,6.73
2023-05-06T21:27:40.390Z,7.33
2023-05-06T21:30:07.557Z,9.17
2023-05-06T21:32:34.416Z,7.37
2023-05-06T21:35:01.917Z,10.37
2023-05-06T21:37:28.773Z,12.60
2023-05-06T21:39:55.781Z,7.13
2023-05-06T21:42:22.535Z,9.37
2023-05-06T21:44:49.617Z,7.40
2023-05-06T21:47:16.441Z,6.57
2023-05-06T21:49:43.259Z,6.63
2023-05-06T21:52:10.203Z,8.23
2023-05-06T21:54:36.962Z,8.70
2023-05-06T21:57:08.408Z,7.40
2023-05-06T21:59:35.759Z,8.30
2023-05-06T22:02:03.045Z,8.90
2023-05-06T22:04:30.165Z,9.00
2023-05-06T22:06:57.144Z,5.80
2023-05-06T22:09:24.023Z,7.07
2023-05-06T22:11:50.868Z,7.93
2023-05-06T22:14:19.855Z,6.90
2023-05-06T22:16:49.016Z,6.93
2023-05-06T22:19:15.929Z,9.27
2023-05-06T22:21:42.783Z,6.67
2023-05-06T22:24:09.600Z,6.90
2023-05-06T22:26:36.587Z,7.70
2023-05-06T22:29:03.506Z,5.73
2023-05-06T22:31:30.449Z,6.67
2023-05-06T22:33:58.333Z,7.20
2023-05-06T22:36:29.742Z,7.43
2023-05-06T22:38:56.679Z,5.67
2023-05-06T22:41:23.564Z,7.60
2023-05-06T22:43:50.450Z,5.80
2023-05-06T22:46:17.383Z,6.23
2023-05-06T22:48:47.179Z,6.70
2023-05-06T22:51:17.231Z,5.60
2023-05-06T22:53:44.124Z,6.97
2023-05-06T22:56:11.371Z,5.03
2023-05-06T22:58:38.350Z,4.73
2023-05-06T23:01:05.330Z,4.87
2023-05-06T23:03:32.373Z,4.83
2023-05-06T23:05:59.186Z,4.97
2023-05-06T23:08:26.100Z,5.30
2023-05-06T23:10:52.872Z,7.60
2023-05-06T23:13:19.735Z,4.63
2023-05-06T23:15:46.592Z,5.13
2023-05-06T23:18:13.479Z,4.63
2023-05-06T23:20:40.646Z,5.37
2023-05-06T23:23:10.780Z,3.90
2023-05-06T23:25:37.839Z,4.80
2023-05-06T23:28:04.804Z,3.63
2023-05-06T23:30:31.670Z,5.50
2023-05-06T23:32:58.606Z,3.63
2023-05-06T23:35:26.148Z,6.00
2023-05-06T23:37:53.084Z,5.77
2023-05-06T23:40:19.975Z,5.07
2023-05-06T23:42:46.786Z,6.10
2023-05-06T23:45:13.698Z,4.33
2023-05-06T23:47:40.581Z,3.43
2023-05-06T23:50:07.763Z,4.60
2023-05-06T23:52:34.818Z,8.03
2023-05-06T23:55:01.696Z,4.07
2023-05-06T23:57:28.451Z,3.27
2023-05-06T23:59:55.392Z,3.97
